createdAt,value
2018-12-26T00:00:58.685Z,103535.65
2018-12-26T00:01:59.192Z,103536.48
2018-12-26T00:03:00.584Z,103537.64
2018-12-26T00:04:01.051Z,103538.30
2018-12-26T00:05:01.424Z,103538.64
2018-12-26T00:06:01.981Z,103539.41
2018-12-26T00:07:02.369Z,103539.30
2018-12-26T00:08:02.681Z,103539.63
2018-12-26T00:09:03.226Z,103539.73
2018-12-26T00:10:02.521Z,103540.08
2018-12-26T00:11:03.837Z,103539.84
2018-12-26T00:12:04.190Z,103539.52
2018-12-26T00:13:04.644Z,103539.41
2018-12-26T00:14:05.151Z,103539.68
2018-12-26T00:15:05.535Z,103539.68
2018-12-26T00:16:05.991Z,103539.78
2018-12-26T00:17:06.325Z,103539.45
2018-12-26T00:18:06.612Z,103538.69
2018-12-26T00:19:06.922Z,103537.98
2018-12-26T00:20:07.439Z,103537.31
2018-12-26T00:21:06.651Z,103536.66
2018-12-26T00:22:08.393Z,103537.03
2018-12-26T00:23:08.702Z,103537.19
2018-12-26T00:24:09.058Z,103537.03
2018-12-26T00:25:08.444Z,103537.63
2018-12-26T00:26:08.659Z,103537.75
2018-12-26T00:27:10.061Z,103538.14
2018-12-26T00:28:10.424Z,103538.13
2018-12-26T00:29:10.767Z,103538.81
2018-12-26T00:30:11.071Z,103539.32
2018-12-26T00:31:11.437Z,103539.93
2018-12-26T00:32:11.762Z,103539.94
2018-12-26T00:33:12.112Z,103540.18
2018-12-26T00:34:12.514Z,103540.67
2018-12-26T00:35:12.993Z,103541.08
2018-12-26T00:36:13.357Z,103540.65
2018-12-26T00:37:13.719Z,103540.05
2018-12-26T00:38:14.382Z,103538.73
2018-12-26T00:39:14.809Z,103538.30
2018-12-26T00:40:15.425Z,103537.33
2018-12-26T00:41:15.729Z,103536.01
2018-12-26T00:42:16.199Z,103534.66
2018-12-26T00:43:16.531Z,103533.44
2018-12-26T00:44:16.842Z,103532.89
2018-12-26T00:45:17.153Z,103531.74
2018-12-26T00:46:17.489Z,103531.39
2018-12-26T00:47:17.813Z,103531.41
2018-12-26T00:47:26.248Z,103534.66
2018-12-26T00:48:27.556Z,103534.59
2018-12-26T00:49:27.914Z,103534.16
2018-12-26T00:50:28.267Z,103533.67
2018-12-26T00:51:28.631Z,103533.77
2018-12-26T00:52:28.104Z,103534.32
2018-12-26T00:53:29.505Z,103535.31
2018-12-26T00:54:30.080Z,103536.25
2018-12-26T00:55:30.447Z,103537.25
2018-12-26T00:56:30.921Z,103537.74
2018-12-26T00:57:31.692Z,103538.14
2018-12-26T00:58:32.061Z,103538.47
2018-12-26T00:59:32.622Z,103538.58
2018-12-26T01:00:32.994Z,103538.03
2018-12-26T01:01:32.296Z,103538.14
2018-12-26T01:02:33.816Z,103537.63
2018-12-26T01:03:34.165Z,103536.80
2018-12-26T01:04:34.451Z,103536.52
2018-12-26T01:05:34.754Z,103536.56
2018-12-26T01:06:35.081Z,103535.69
2018-12-26T01:07:35.795Z,103535.56
2018-12-26T01:08:36.148Z,103535.55
2018-12-26T01:09:36.655Z,103535.30
2018-12-26T01:10:36.983Z,103535.67
2018-12-26T01:11:37.834Z,103535.34
2018-12-26T01:12:38.414Z,103535.88
2018-12-26T01:13:39.118Z,103535.82
2018-12-26T01:14:39.426Z,103535.39
2018-12-26T01:15:39.720Z,103535.39
2018-12-26T01:16:40.092Z,103534.89
2018-12-26T01:17:40.380Z,103535.16
2018-12-26T01:18:40.722Z,103535.33
2018-12-26T01:19:41.343Z,103534.67
2018-12-26T01:20:41.809Z,103534.44
2018-12-26T01:21:42.098Z,103534.11
2018-12-26T01:22:42.404Z,103533.41
2018-12-26T01:23:42.781Z,103532.91
2018-12-26T01:24:43.258Z,103532.41
2018-12-26T01:25:43.582Z,103531.84
2018-12-26T01:26:43.912Z,103531.84
2018-12-26T01:27:44.284Z,103531.41
2018-12-26T01:28:44.631Z,103531.14
2018-12-26T01:29:45.009Z,103530.70
2018-12-26T01:30:45.407Z,103530.53
2018-12-26T01:31:45.695Z,103529.92
2018-12-26T01:32:46.013Z,103528.83
2018-12-26T01:32:54.063Z,103512.80
2018-12-26T01:33:55.491Z,103512.53
2018-12-26T01:34:55.852Z,103512.86
2018-12-26T01:35:56.276Z,103512.59
2018-12-26T01:36:56.596Z,103512.15
2018-12-26T01:37:56.979Z,103512.30
2018-12-26T01:38:57.336Z,103512.32
2018-12-26T01:39:57.745Z,103512.70
2018-12-26T01:40:58.070Z,103512.59
2018-12-26T01:41:58.409Z,103512.22
2018-12-26T01:42:58.673Z,103512.67
2018-12-26T01:43:59.137Z,103512.72
2018-12-26T01:44:59.480Z,103512.55
2018-12-26T01:45:59.819Z,103512.28
2018-12-26T01:47:00.138Z,103511.91
2018-12-26T01:48:00.769Z,103511.67
2018-12-26T01:49:01.121Z,103512.06
2018-12-26T01:50:01.491Z,103511.52
2018-12-26T01:51:01.914Z,103511.63
2018-12-26T01:52:02.210Z,103512.01
2018-12-26T01:53:02.513Z,103512.20
2018-12-26T01:54:02.860Z,103512.58
2018-12-26T01:55:03.208Z,103513.02
2018-12-26T01:56:03.516Z,103513.09
2018-12-26T01:57:04.133Z,103513.97
2018-12-26T01:58:04.514Z,103515.15
2018-12-26T01:59:06.936Z,103515.64
2018-12-26T02:00:04.304Z,103516.12
2018-12-26T02:01:05.662Z,103516.85
2018-12-26T02:02:05.923Z,103517.25
2018-12-26T02:03:06.368Z,103517.25
2018-12-26T02:04:07.930Z,103517.13
2018-12-26T02:05:07.367Z,103517.56
2018-12-26T02:06:07.856Z,103517.24
2018-12-26T02:07:08.170Z,103516.84
2018-12-26T02:08:08.709Z,103516.45
2018-12-26T02:09:09.058Z,103516.35
2018-12-26T02:10:09.317Z,103516.29
2018-12-26T02:11:09.637Z,103516.03
2018-12-26T02:12:09.939Z,103515.91
2018-12-26T02:13:10.394Z,103515.80
2018-12-26T02:14:10.792Z,103515.19
2018-12-26T02:15:11.310Z,103514.59
2018-12-26T02:16:11.620Z,103514.09
2018-12-26T02:17:12.324Z,103513.05
2018-12-26T02:18:12.753Z,103512.16
2018-12-26T02:18:21.849Z,103506.58
2018-12-26T02:19:22.393Z,103505.65
2018-12-26T02:20:22.822Z,103505.42
2018-12-26T02:21:23.353Z,103505.58
2018-12-26T02:22:23.709Z,103505.42
2018-12-26T02:23:24.099Z,103505.63
2018-12-26T02:24:24.675Z,103505.20
2018-12-26T02:25:24.916Z,103504.84
2018-12-26T02:26:25.463Z,103504.53
2018-12-26T02:27:25.816Z,103504.03
2018-12-26T02:28:26.135Z,103503.52
2018-12-26T02:29:26.582Z,103503.97
2018-12-26T02:30:26.863Z,103503.69
2018-12-26T02:31:27.245Z,103503.58
2018-12-26T02:32:30.311Z,103503.45
2018-12-26T02:33:27.362Z,103504.11
2018-12-26T02:34:28.844Z,103504.55
2018-12-26T02:35:29.197Z,103504.11
2018-12-26T02:36:29.685Z,103504.05
2018-12-26T02:37:30.294Z,103504.20
2018-12-26T02:38:30.606Z,103503.66
2018-12-26T02:39:30.954Z,103502.77
2018-12-26T02:40:31.242Z,103502.27
2018-12-26T02:41:31.548Z,103501.92
2018-12-26T02:42:31.976Z,103501.37
2018-12-26T02:43:32.491Z,103500.77
2018-12-26T02:44:32.759Z,103500.69
2018-12-26T02:45:33.046Z,103500.58
2018-12-26T02:46:33.798Z,103500.31
2018-12-26T02:47:34.047Z,103499.37
2018-12-26T02:48:34.577Z,103498.41
2018-12-26T02:49:34.879Z,103497.64
2018-12-26T02:50:35.311Z,103496.65
2018-12-26T02:51:34.597Z,103495.33
2018-12-26T02:52:35.597Z,103494.16
2018-12-26T02:53:35.936Z,103493.44
2018-12-26T02:54:36.279Z,103492.23
2018-12-26T02:55:36.941Z,103490.97
2018-12-26T02:56:46.157Z,103489.86
2018-12-26T02:57:36.511Z,103489.42
2018-12-26T02:58:37.810Z,103488.20
2018-12-26T02:59:38.233Z,103486.67
2018-12-26T03:00:38.541Z,103485.66
2018-12-26T03:01:38.862Z,103484.30
2018-12-26T03:02:39.321Z,103482.96
2018-12-26T03:03:39.599Z,103482.53
2018-12-26T03:04:40.002Z,103481.83
2018-12-26T03:05:40.355Z,103481.50
2018-12-26T03:05:48.435Z,103470.39
2018-12-26T03:06:49.615Z,103470.13
2018-12-26T03:07:49.865Z,103470.45
2018-12-26T03:08:50.381Z,103470.17
2018-12-26T03:09:50.656Z,103470.30
2018-12-26T03:10:51.015Z,103470.08
2018-12-26T03:11:50.146Z,103470.75
2018-12-26T03:12:51.421Z,103470.96
2018-12-26T03:13:51.785Z,103471.48
2018-12-26T03:14:52.211Z,103471.37
2018-12-26T03:15:52.507Z,103471.86
2018-12-26T03:16:52.881Z,103471.92
2018-12-26T03:17:53.253Z,103471.59
2018-12-26T03:18:53.543Z,103471.36
2018-12-26T03:19:53.879Z,103471.30
2018-12-26T03:20:54.214Z,103470.70
2018-12-26T03:21:54.853Z,103469.99
2018-12-26T03:22:55.249Z,103469.42
2018-12-26T03:23:55.884Z,103468.93
2018-12-26T03:24:56.148Z,103467.94
2018-12-26T03:25:56.479Z,103467.17
2018-12-26T03:26:56.886Z,103466.55
2018-12-26T03:27:57.160Z,103465.73
2018-12-26T03:28:57.624Z,103464.79
2018-12-26T03:29:57.992Z,103464.25
2018-12-26T03:30:58.276Z,103463.64
2018-12-26T03:31:58.813Z,103463.47
2018-12-26T03:32:59.310Z,103463.20
2018-12-26T03:33:59.598Z,103462.70
2018-12-26T03:35:00.036Z,103462.30
2018-12-26T03:36:00.360Z,103462.15
2018-12-26T03:37:00.925Z,103461.83
2018-12-26T03:38:01.220Z,103461.48
2018-12-26T03:39:01.784Z,103461.59
2018-12-26T03:40:02.201Z,103461.27
2018-12-26T03:41:02.512Z,103460.70
2018-12-26T03:42:02.799Z,103461.05
2018-12-26T03:43:03.105Z,103460.87
2018-12-26T03:44:03.722Z,103460.81
2018-12-26T03:45:04.025Z,103460.75
2018-12-26T03:46:04.674Z,103460.92
2018-12-26T03:47:05.312Z,103461.36
2018-12-26T03:48:05.599Z,103461.26
2018-12-26T03:49:06.260Z,103461.42
2018-12-26T03:50:06.732Z,103461.80
2018-12-26T03:51:07.167Z,103461.97
2018-12-26T03:51:15.502Z,103462.16
2018-12-26T03:52:16.868Z,103461.82
2018-12-26T03:53:17.126Z,103461.49
2018-12-26T03:54:17.439Z,103461.59
2018-12-26T03:55:16.815Z,103461.37
2018-12-26T03:56:18.169Z,103461.38
2018-12-26T03:57:18.957Z,103460.81
2018-12-26T03:58:19.315Z,103460.42
2018-12-26T03:59:19.784Z,103460.03
2018-12-26T04:00:20.068Z,103459.91
2018-12-26T04:01:20.411Z,103460.09
2018-12-26T04:02:20.692Z,103460.42
2018-12-26T04:03:20.974Z,103459.27
2018-12-26T04:04:21.335Z,103458.38
2018-12-26T04:05:21.796Z,103458.08
2018-12-26T04:06:22.211Z,103457.42
2018-12-26T04:07:22.538Z,103456.09
2018-12-26T04:08:22.846Z,103455.67
2018-12-26T04:09:23.266Z,103454.94
2018-12-26T04:10:22.671Z,103454.60
2018-12-26T04:11:23.020Z,103453.94
2018-12-26T04:12:24.384Z,103453.28
2018-12-26T04:13:24.982Z,103452.61
2018-12-26T04:14:25.367Z,103452.12
2018-12-26T04:15:25.872Z,103451.17
2018-12-26T04:16:26.158Z,103450.23
2018-12-26T04:17:26.434Z,103449.73
2018-12-26T04:18:26.763Z,103449.73
2018-12-26T04:19:27.156Z,103448.69
2018-12-26T04:20:27.561Z,103448.09
2018-12-26T04:21:27.900Z,103447.09
2018-12-26T04:22:28.216Z,103447.03
2018-12-26T04:23:28.546Z,103446.70
2018-12-26T04:24:28.907Z,103446.70
2018-12-26T04:25:29.586Z,103446.37
2018-12-26T04:26:30.141Z,103445.88
2018-12-26T04:27:30.835Z,103445.70
2018-12-26T04:28:31.134Z,103445.38
2018-12-26T04:29:31.651Z,103445.16
2018-12-26T04:30:32.032Z,103444.89
2018-12-26T04:31:32.432Z,103444.55
2018-12-26T04:32:33.424Z,103444.63
2018-12-26T04:33:33.778Z,103444.61
2018-12-26T04:34:34.547Z,103445.23
2018-12-26T04:35:34.927Z,103444.86
2018-12-26T04:35:43.890Z,103448.69
2018-12-26T04:36:44.561Z,103448.25
2018-12-26T04:37:44.079Z,103448.48
2018-12-26T04:38:45.407Z,103447.81
2018-12-26T04:39:45.760Z,103447.64
2018-12-26T04:40:46.074Z,103447.31
2018-12-26T04:41:46.408Z,103447.31
2018-12-26T04:42:46.704Z,103447.48
2018-12-26T04:43:47.057Z,103448.25
2018-12-26T04:44:47.338Z,103448.15
2018-12-26T04:45:47.766Z,103448.02
2018-12-26T04:46:48.248Z,103447.96
2018-12-26T04:47:48.664Z,103448.47
2018-12-26T04:48:49.128Z,103448.91
2018-12-26T04:49:49.528Z,103449.73
2018-12-26T04:50:49.862Z,103450.18
2018-12-26T04:51:50.187Z,103450.28
2018-12-26T04:52:50.623Z,103450.98
2018-12-26T04:53:50.961Z,103451.33
2018-12-26T04:54:51.342Z,103451.27
2018-12-26T04:55:50.538Z,103451.70
2018-12-26T04:56:51.873Z,103452.21
2018-12-26T04:57:52.313Z,103452.42
2018-12-26T04:58:52.651Z,103451.93
2018-12-26T04:59:53.021Z,103451.91
2018-12-26T05:00:52.319Z,103452.45
2018-12-26T05:01:53.669Z,103452.80
2018-12-26T05:02:54.134Z,103452.78
2018-12-26T05:03:54.437Z,103453.23
2018-12-26T05:04:54.730Z,103452.84
2018-12-26T05:05:55.482Z,103453.06
2018-12-26T05:06:55.852Z,103452.44
2018-12-26T05:07:56.182Z,103452.55
2018-12-26T05:08:56.671Z,103451.92
2018-12-26T05:09:56.989Z,103452.09
2018-12-26T05:10:57.286Z,103451.87
2018-12-26T05:11:57.552Z,103451.94
2018-12-26T05:12:57.857Z,103452.81
2018-12-26T05:13:58.197Z,103453.41
2018-12-26T05:14:58.209Z,103453.64
2018-12-26T05:15:58.526Z,103453.81
2018-12-26T05:16:58.897Z,103454.64
2018-12-26T05:17:59.253Z,103455.84
2018-12-26T05:18:59.570Z,103457.00
2018-12-26T05:20:00.189Z,103457.89
2018-12-26T05:21:00.580Z,103458.39
2018-12-26T05:22:01.007Z,103458.28
2018-12-26T05:23:01.967Z,103458.72
2018-12-26T05:23:10.840Z,103466.63
2018-12-26T05:24:11.160Z,103466.34
2018-12-26T05:25:12.098Z,103466.13
2018-12-26T05:26:12.636Z,103466.06
2018-12-26T05:27:12.961Z,103465.91
2018-12-26T05:28:13.509Z,103465.84
2018-12-26T05:29:13.757Z,103464.84
2018-12-26T05:30:14.125Z,103464.69
2018-12-26T05:31:14.739Z,103463.96
2018-12-26T05:32:15.142Z,103463.07
2018-12-26T05:33:15.515Z,103462.18
2018-12-26T05:34:15.744Z,103461.36
2018-12-26T05:35:15.995Z,103460.73
2018-12-26T05:36:16.687Z,103459.32
2018-12-26T05:37:17.020Z,103458.70
2018-12-26T05:38:17.535Z,103458.10
2018-12-26T05:39:18.592Z,103457.21
2018-12-26T05:40:16.715Z,103456.66
2018-12-26T05:41:18.053Z,103455.16
2018-12-26T05:42:18.306Z,103453.94
2018-12-26T05:43:18.600Z,103452.84
2018-12-26T05:44:19.162Z,103451.36
2018-12-26T05:45:20.434Z,103450.14
2018-12-26T05:46:19.802Z,103449.31
2018-12-26T05:47:20.078Z,103448.25
2018-12-26T05:48:20.620Z,103447.36
2018-12-26T05:49:19.994Z,103446.87
2018-12-26T05:50:21.292Z,103446.14
2018-12-26T05:51:21.691Z,103445.22
2018-12-26T05:52:21.954Z,103444.77
2018-12-26T05:53:22.394Z,103444.11
2018-12-26T05:54:22.776Z,103443.05
2018-12-26T05:55:23.418Z,103442.66
2018-12-26T05:56:23.759Z,103442.34
2018-12-26T05:57:24.140Z,103441.98
2018-12-26T05:58:23.374Z,103442.15
2018-12-26T05:59:24.732Z,103442.70
2018-12-26T06:00:25.055Z,103443.00
2018-12-26T06:01:25.421Z,103443.76
2018-12-26T06:02:24.721Z,103443.78
2018-12-26T06:03:26.000Z,103444.60
2018-12-26T06:04:26.401Z,103445.22
2018-12-26T06:05:26.694Z,103446.05
2018-12-26T06:06:27.088Z,103446.60
2018-12-26T06:07:27.438Z,103447.16
2018-12-26T06:08:27.798Z,103448.38
2018-12-26T06:09:28.090Z,103449.20
2018-12-26T06:10:28.503Z,103450.75
2018-12-26T06:10:36.892Z,103476.72
2018-12-26T06:11:37.551Z,103476.39
2018-12-26T06:12:38.208Z,103475.96
2018-12-26T06:13:38.550Z,103476.06
2018-12-26T06:14:38.863Z,103475.84
2018-12-26T06:15:39.203Z,103475.84
2018-12-26T06:16:39.951Z,103475.78
2018-12-26T06:17:40.280Z,103475.45
2018-12-26T06:18:40.692Z,103475.52
2018-12-26T06:19:41.229Z,103475.34
2018-12-26T06:20:41.628Z,103474.91
2018-12-26T06:21:42.141Z,103475.13
2018-12-26T06:22:42.475Z,103474.95
2018-12-26T06:23:42.927Z,103475.02
2018-12-26T06:24:43.221Z,103474.75
2018-12-26T06:25:43.747Z,103475.25
2018-12-26T06:26:43.144Z,103475.25
2018-12-26T06:27:51.391Z,103475.58
2018-12-26T06:28:43.825Z,103475.41
2018-12-26T06:29:45.102Z,103475.47
2018-12-26T06:30:45.379Z,103475.47
2018-12-26T06:31:45.737Z,103475.86
2018-12-26T06:32:46.018Z,103476.19
2018-12-26T06:33:46.457Z,103476.97
2018-12-26T06:34:46.815Z,103477.86
2018-12-26T06:35:47.063Z,103479.00
2018-12-26T06:36:47.407Z,103479.12
2018-12-26T06:37:47.742Z,103479.89
2018-12-26T06:38:48.116Z,103480.28
2018-12-26T06:39:48.432Z,103480.28
2018-12-26T06:40:48.776Z,103480.55
2018-12-26T06:41:49.090Z,103480.29
2018-12-26T06:42:49.410Z,103480.56
2018-12-26T06:43:49.707Z,103480.45
2018-12-26T06:44:50.062Z,103480.63
2018-12-26T06:45:50.353Z,103480.89
2018-12-26T06:46:50.635Z,103480.73
2018-12-26T06:47:50.969Z,103480.45
2018-12-26T06:48:51.287Z,103480.40
2018-12-26T06:49:51.630Z,103479.91
2018-12-26T06:50:51.957Z,103479.75
2018-12-26T06:51:52.414Z,103479.69
2018-12-26T06:52:52.776Z,103479.88
2018-12-26T06:53:53.094Z,103479.31
2018-12-26T06:54:53.642Z,103479.16
2018-12-26T06:55:54.033Z,103479.73
2018-12-26T06:56:02.101Z,103486.89
2018-12-26T06:57:03.408Z,103486.28
2018-12-26T06:58:03.755Z,103486.34
2018-12-26T06:59:04.219Z,103486.28
2018-12-26T07:00:04.721Z,103486.12
2018-12-26T07:01:05.213Z,103486.22
2018-12-26T07:02:05.931Z,103485.95
2018-12-26T07:03:06.271Z,103486.45
2018-12-26T07:04:06.680Z,103487.02
2018-12-26T07:05:06.928Z,103487.07
2018-12-26T07:06:07.278Z,103487.31
2018-12-26T07:07:07.740Z,103487.84
2018-12-26T07:08:08.299Z,103487.47
2018-12-26T07:09:08.611Z,103487.53
2018-12-26T07:10:09.363Z,103487.80
2018-12-26T07:11:09.643Z,103488.08
2018-12-26T07:12:09.894Z,103488.09
2018-12-26T07:13:10.263Z,103488.63
2018-12-26T07:14:10.895Z,103489.51
2018-12-26T07:15:11.116Z,103490.13
2018-12-26T07:16:11.530Z,103490.34
2018-12-26T07:17:12.018Z,103490.47
2018-12-26T07:18:12.604Z,103490.69
2018-12-26T07:19:12.896Z,103490.80
2018-12-26T07:20:13.306Z,103491.12
2018-12-26T07:21:13.600Z,103491.67
2018-12-26T07:22:14.065Z,103492.01
2018-12-26T07:23:14.392Z,103492.88
2018-12-26T07:24:14.662Z,103493.55
2018-12-26T07:25:15.054Z,103494.70
2018-12-26T07:26:15.351Z,103494.91
2018-12-26T07:27:15.610Z,103495.47
2018-12-26T07:28:15.908Z,103495.52
2018-12-26T07:29:16.277Z,103495.97
2018-12-26T07:30:15.591Z,103496.25
2018-12-26T07:31:17.048Z,103495.91
2018-12-26T07:32:17.287Z,103496.14
2018-12-26T07:33:17.583Z,103496.56
2018-12-26T07:34:17.994Z,103496.72
2018-12-26T07:35:18.252Z,103497.07
2018-12-26T07:36:18.580Z,103497.56
2018-12-26T07:37:19.054Z,103498.05
2018-12-26T07:38:19.396Z,103498.11
2018-12-26T07:39:19.601Z,103498.53
2018-12-26T07:40:19.962Z,103498.82
2018-12-26T07:41:20.685Z,103498.77
2018-12-26T07:41:28.837Z,103500.41
2018-12-26T07:42:30.108Z,103500.30
2018-12-26T07:43:30.414Z,103499.91
2018-12-26T07:44:30.663Z,103499.26
2018-12-26T07:45:30.908Z,103499.14
2018-12-26T07:46:31.276Z,103498.59
2018-12-26T07:47:31.559Z,103498.31
2018-12-26T07:48:32.060Z,103498.03
2018-12-26T07:49:32.502Z,103497.75
2018-12-26T07:50:32.834Z,103498.19
2018-12-26T07:51:32.198Z,103498.58
2018-12-26T07:52:33.752Z,103498.90
2018-12-26T07:53:34.099Z,103499.52
2018-12-26T07:54:34.469Z,103499.67
2018-12-26T07:55:35.022Z,103500.16
2018-12-26T07:56:35.402Z,103499.78
2018-12-26T07:57:35.763Z,103499.94
2018-12-26T07:58:35.350Z,103500.99
2018-12-26T07:59:37.687Z,103501.05
2018-12-26T08:00:36.008Z,103501.70
2018-12-26T08:01:37.791Z,103502.75
2018-12-26T08:02:38.155Z,103502.97
2018-12-26T08:03:50.768Z,103504.02
2018-12-26T08:04:37.815Z,103504.39
2018-12-26T08:05:39.293Z,103504.84
2018-12-26T08:06:39.686Z,103505.88
2018-12-26T08:07:40.047Z,103506.75
2018-12-26T08:08:40.936Z,103507.16
2018-12-26T08:09:41.492Z,103507.63
2018-12-26T08:10:41.849Z,103508.23
2018-12-26T08:11:42.209Z,103509.02
2018-12-26T08:12:42.560Z,103509.39
2018-12-26T08:13:43.286Z,103509.95
2018-12-26T08:14:43.788Z,103510.33
2018-12-26T08:15:44.405Z,103510.44
2018-12-26T08:16:44.716Z,103511.32
2018-12-26T08:17:45.214Z,103511.09
2018-12-26T08:18:45.560Z,103511.44
2018-12-26T08:19:46.115Z,103511.88
2018-12-26T08:20:46.529Z,103512.31
2018-12-26T08:21:46.938Z,103512.48
2018-12-26T08:22:47.185Z,103513.64
2018-12-26T08:23:47.480Z,103514.08
2018-12-26T08:24:47.795Z,103514.68
2018-12-26T08:25:48.197Z,103515.12
2018-12-26T08:26:48.550Z,103515.45
2018-12-26T08:27:48.829Z,103515.83
2018-12-26T08:28:49.109Z,103516.50
2018-12-26T08:28:57.445Z,103524.14
2018-12-26T08:29:58.833Z,103523.70
2018-12-26T08:30:59.172Z,103523.81
2018-12-26T08:31:59.609Z,103523.15
2018-12-26T08:32:59.951Z,103522.81
2018-12-26T08:34:00.339Z,103522.16
2018-12-26T08:35:00.387Z,103522.16
2018-12-26T08:36:00.769Z,103521.99
2018-12-26T08:37:00.121Z,103521.66
2018-12-26T08:38:01.641Z,103521.50
2018-12-26T08:39:02.115Z,103521.54
2018-12-26T08:40:02.571Z,103520.95
2018-12-26T08:41:03.404Z,103521.22
2018-12-26T08:42:03.701Z,103521.05
2018-12-26T08:43:04.063Z,103521.22
2018-12-26T08:44:04.439Z,103521.71
2018-12-26T08:45:04.788Z,103522.04
2018-12-26T08:46:05.255Z,103522.66
2018-12-26T08:47:05.642Z,103522.98
2018-12-26T08:48:06.048Z,103523.16
2018-12-26T08:49:06.723Z,103523.33
2018-12-26T08:50:07.047Z,103523.98
2018-12-26T08:51:07.487Z,103523.78
2018-12-26T08:52:08.456Z,103524.28
2018-12-26T08:53:08.764Z,103524.87
2018-12-26T08:54:09.485Z,103524.94
2018-12-26T08:55:10.041Z,103524.87
2018-12-26T08:56:10.519Z,103525.37
2018-12-26T08:57:11.892Z,103525.77
2018-12-26T08:58:11.252Z,103526.04
2018-12-26T08:59:11.381Z,103526.41
2018-12-26T09:00:11.848Z,103526.98
2018-12-26T09:01:12.130Z,103526.92
2018-12-26T09:02:12.943Z,103526.86
2018-12-26T09:03:13.588Z,103527.52
2018-12-26T09:04:13.996Z,103527.13
2018-12-26T09:05:14.339Z,103527.47
2018-12-26T09:06:14.950Z,103527.25
2018-12-26T09:07:15.347Z,103527.45
2018-12-26T09:08:16.210Z,103527.46
2018-12-26T09:09:16.685Z,103527.89
2018-12-26T09:10:17.273Z,103528.23
2018-12-26T09:11:17.899Z,103528.23
2018-12-26T09:11:27.848Z,103532.14
2018-12-26T09:12:29.331Z,103531.53
2018-12-26T09:13:29.630Z,103531.97
2018-12-26T09:14:29.985Z,103532.14
2018-12-26T09:15:30.287Z,103532.63
2018-12-26T09:16:30.816Z,103533.28
2018-12-26T09:17:31.574Z,103533.12
2018-12-26T09:18:31.284Z,103533.14
2018-12-26T09:19:31.818Z,103533.34
2018-12-26T09:20:33.161Z,103533.94
2018-12-26T09:21:34.177Z,103533.62
2018-12-26T09:22:33.581Z,103533.66
2018-12-26T09:23:33.835Z,103534.44
2018-12-26T09:24:34.384Z,103534.48
2018-12-26T09:25:34.696Z,103534.56
2018-12-26T09:26:35.153Z,103535.16
2018-12-26T09:27:35.911Z,103534.89
2018-12-26T09:28:43.784Z,103535.49
2018-12-26T09:29:36.087Z,103535.59
2018-12-26T09:30:37.482Z,103536.53
2018-12-26T09:31:37.142Z,103537.57
2018-12-26T09:32:38.923Z,103537.95
2018-12-26T09:33:39.300Z,103538.30
2018-12-26T09:34:39.691Z,103539.22
2018-12-26T09:35:40.256Z,103540.28
2018-12-26T09:36:40.611Z,103540.09
2018-12-26T09:37:40.922Z,103540.58
2018-12-26T09:38:41.293Z,103541.53
2018-12-26T09:39:41.659Z,103542.02
2018-12-26T09:40:41.937Z,103542.83
2018-12-26T09:41:42.247Z,103543.61
2018-12-26T09:42:42.658Z,103543.55
2018-12-26T09:43:42.514Z,103544.11
2018-12-26T09:44:43.807Z,103543.70
2018-12-26T09:45:44.088Z,103543.85
2018-12-26T09:46:44.549Z,103543.59
2018-12-26T09:47:45.007Z,103543.86
2018-12-26T09:48:45.282Z,103543.85
2018-12-26T09:49:45.703Z,103544.31
2018-12-26T09:50:46.014Z,103544.59
2018-12-26T09:51:46.896Z,103544.36
2018-12-26T09:52:47.245Z,103544.75
2018-12-26T09:53:47.574Z,103544.96
2018-12-26T09:54:49.281Z,103544.90
2018-12-26T09:55:47.149Z,103544.57
2018-12-26T09:56:48.630Z,103544.52
2018-12-26T09:57:49.122Z,103544.34
2018-12-26T09:58:52.596Z,103544.22
2018-12-26T09:59:48.947Z,103543.47
2018-12-26T10:00:50.235Z,103543.73
2018-12-26T10:01:50.615Z,103543.61
2018-12-26T10:01:58.937Z,103538.73
2018-12-26T10:03:00.203Z,103538.91
2018-12-26T10:04:00.562Z,103538.73
2018-12-26T10:05:00.876Z,103538.84
2018-12-26T10:06:01.215Z,103538.63
2018-12-26T10:07:01.527Z,103539.00
2018-12-26T10:08:01.765Z,103538.45
2018-12-26T10:09:02.162Z,103538.27
2018-12-26T10:10:02.570Z,103538.01
2018-12-26T10:11:02.905Z,103537.45
2018-12-26T10:12:03.212Z,103537.21
2018-12-26T10:13:03.824Z,103536.61
2018-12-26T10:14:04.159Z,103536.10
2018-12-26T10:15:04.777Z,103535.80
2018-12-26T10:16:05.096Z,103535.67
2018-12-26T10:17:05.558Z,103534.74
2018-12-26T10:18:08.744Z,103534.38
2018-12-26T10:19:05.472Z,103533.72
2018-12-26T10:20:06.859Z,103533.09
2018-12-26T10:21:07.630Z,103532.36
2018-12-26T10:22:07.945Z,103531.23
2018-12-26T10:23:08.431Z,103530.63
2018-12-26T10:24:08.771Z,103529.77
2018-12-26T10:25:09.266Z,103529.10
2018-12-26T10:26:09.658Z,103528.80
2018-12-26T10:27:10.169Z,103527.80
2018-12-26T10:28:10.602Z,103527.45
2018-12-26T10:29:10.909Z,103527.16
2018-12-26T10:30:11.328Z,103527.02
2018-12-26T10:31:11.577Z,103526.40
2018-12-26T10:32:11.892Z,103526.70
2018-12-26T10:33:12.242Z,103526.47
2018-12-26T10:34:13.062Z,103525.78
2018-12-26T10:35:13.465Z,103524.55
2018-12-26T10:36:13.891Z,103524.31
2018-12-26T10:37:14.296Z,103523.02
2018-12-26T10:38:14.692Z,103522.28
2018-12-26T10:39:15.073Z,103520.81
2018-12-26T10:40:14.393Z,103519.25
2018-12-26T10:41:15.831Z,103517.91
2018-12-26T10:42:16.135Z,103516.67
2018-12-26T10:43:16.502Z,103515.55
2018-12-26T10:44:16.859Z,103514.37
2018-12-26T10:45:17.203Z,103513.25
2018-12-26T10:46:17.567Z,103511.78
2018-12-26T10:47:17.847Z,103510.64
2018-12-26T10:48:18.321Z,103509.14
2018-12-26T10:48:28.404Z,103494.88
2018-12-26T10:49:29.682Z,103494.30
2018-12-26T10:50:30.019Z,103494.14
2018-12-26T10:51:30.339Z,103493.70
2018-12-26T10:52:31.128Z,103493.27
2018-12-26T10:53:31.507Z,103492.27
2018-12-26T10:54:31.804Z,103491.11
2018-12-26T10:55:32.013Z,103490.95
2018-12-26T10:56:32.426Z,103489.95
2018-12-26T10:57:32.654Z,103488.78
2018-12-26T10:58:32.945Z,103487.78
2018-12-26T10:59:33.210Z,103486.63
2018-12-26T11:00:33.623Z,103484.63
2018-12-26T11:01:33.898Z,103483.30
2018-12-26T11:02:34.294Z,103481.47
2018-12-26T11:03:34.953Z,103479.68
2018-12-26T11:04:34.972Z,103477.76
2018-12-26T11:05:35.418Z,103475.70
2018-12-26T11:06:35.739Z,103474.24
2018-12-26T11:07:36.100Z,103472.59
2018-12-26T11:08:36.583Z,103471.36
2018-12-26T11:09:36.889Z,103469.59
2018-12-26T11:10:37.275Z,103467.77
2018-12-26T11:11:37.708Z,103466.21
2018-12-26T11:12:38.043Z,103464.31
2018-12-26T11:13:38.344Z,103462.66
2018-12-26T11:14:38.734Z,103461.10
2018-12-26T11:15:39.084Z,103458.55
2018-12-26T11:16:39.407Z,103456.82
2018-12-26T11:17:38.621Z,103455.16